Silia — WDG2034 — position and weather

sailwx.info

Track history (hours):
 
Tides and Currents Weather Stations Pressure Air Temp Water Temp Dewpoint Dewpoint Depression Visibility Wind Speed Wind Dir Waves Ship Positions

Silia

Owner: greger pacific marine, napa, CA. More information available from US FCC via Universal Licensing System and Coast Guard Vessel Documentation Center.

Last reported at 2014-Dec-09 22:33 UTC. Time now 2014-Dec-20 08:04 UTC.
Position N 38°03' W 122°19'.
Warning: this ship's position is 10 days out of date.

Length 17 m; draft 3 m.

Type: Tug. MMSI: 367511460.

Date/timePositionNaut miles runAvg speedWind from/ knotsBaromVisibWave heightAir tempDewpointWater temp
2014-Dec-09 22:33N 38°03' W 122°19'9 8.5
2014-Dec-09 21:33N 37°56' W 122°26'9 9.1
2014-Dec-09 20:33N 37°47' W 122°22'8 8.0
2014-Dec-09 19:33N 37°39' W 122°19'8 7.6
2014-Dec-09 18:33N 37°34' W 122°13'  
2014-Dec-04 01:32N 37°30' W 122°13'0 0.4
2014-Dec-04 00:32N 37°31' W 122°13'0 0.0
2014-Dec-03 23:32N 37°31' W 122°13'0 0.2
2014-Dec-03 22:32N 37°31' W 122°13'0 0.1
2014-Dec-03 21:33N 37°31' W 122°13'0 0.1
2014-Dec-03 20:32N 37°31' W 122°13'0 0.1
2014-Dec-03 19:33N 37°31' W 122°13'0 0.0
2014-Dec-03 18:33N 37°31' W 122°13'0 0.0
2014-Dec-03 17:32N 37°31' W 122°13'1 0.6
2014-Dec-03 16:33N 37°30' W 122°13'1 0.6
2014-Dec-03 15:33N 37°31' W 122°13'0 0.1
2014-Dec-03 10:11N 37°31' W 122°13'0 0.0
2014-Dec-03 09:33N 37°31' W 122°13'0 0.0
2014-Dec-03 08:28N 37°31' W 122°13'0 0.0
2014-Dec-03 07:33N 37°31' W 122°13'0 0.0
2014-Dec-03 06:33N 37°31' W 122°13'0 0.0
2014-Dec-03 05:33N 37°31' W 122°13'0 0.0
2014-Dec-03 04:33N 37°31' W 122°13'0 0.0
2014-Dec-03 03:33N 37°31' W 122°13'0 0.0
2014-Dec-03 02:33N 37°31' W 122°13'0 0.2
2014-Dec-03 01:32N 37°31' W 122°13'0 0.0
2014-Dec-03 00:32N 37°31' W 122°13'0 0.1
2014-Dec-02 23:33N 37°31' W 122°13'0 0.0
2014-Dec-02 22:33N 37°31' W 122°13'0 0.0
2014-Dec-02 21:32N 37°31' W 122°13'0 0.1
2014-Dec-02 20:33N 37°31' W 122°13'0 0.1
2014-Dec-02 19:33N 37°31' W 122°13'0 0.1
2014-Dec-02 18:33N 37°31' W 122°13'0 0.3
2014-Dec-02 17:33N 37°31' W 122°13'0 0.1
2014-Dec-02 16:31N 37°31' W 122°13'0 0.0
2014-Dec-02 15:17N 37°31' W 122°13'0 0.1
2014-Dec-02 14:33N 37°31' W 122°13'0 0.1
2014-Dec-02 13:32N 37°31' W 122°13'0 0.0
2014-Dec-02 12:30N 37°31' W 122°13'0 0.0
2014-Dec-02 10:25N 37°31' W 122°13'0 0.0
2014-Dec-02 09:33N 37°31' W 122°13'0 0.0
2014-Dec-02 08:33N 37°31' W 122°13'0 0.0
2014-Dec-02 07:31N 37°31' W 122°13'0 0.0
2014-Dec-02 06:32N 37°31' W 122°13'0 0.0
2014-Dec-02 05:33N 37°31' W 122°13'0 0.0
2014-Dec-02 04:28N 37°31' W 122°13'0 0.0
2014-Dec-02 03:22N 37°31' W 122°13'0 0.0
2014-Dec-02 02:29N 37°31' W 122°13'0 0.2
2014-Dec-02 01:33N 37°31' W 122°13'1 0.6
2014-Dec-02 00:33N 37°31' W 122°12'0 0.1
2014-Dec-01 23:33N 37°31' W 122°12'0 0.3
2014-Dec-01 22:33N 37°31' W 122°12'0 0.0
2014-Dec-01 21:21N 37°31' W 122°12'0 0.1
2014-Dec-01 20:28N 37°31' W 122°12'0 0.3
2014-Dec-01 19:33N 37°31' W 122°12'0 0.1
2014-Dec-01 18:32N 37°31' W 122°12'0 0.1
2014-Dec-01 17:32N 37°31' W 122°12'0 0.2
2014-Dec-01 16:32N 37°31' W 122°12'0 0.4
2014-Dec-01 15:34N 37°31' W 122°12'1 0.6
2014-Dec-01 14:33N 37°31' W 122°13'0 0.4
2014-Dec-01 13:33N 37°31' W 122°13'0 0.0
2014-Dec-01 12:33N 37°31' W 122°13'0 0.0
2014-Dec-01 11:33N 37°31' W 122°13'0 0.0
2014-Dec-01 10:33N 37°31' W 122°13'0 0.0
2014-Dec-01 09:33N 37°31' W 122°13'0 0.0
2014-Dec-01 08:33N 37°31' W 122°13'0 0.0
2014-Dec-01 07:33N 37°31' W 122°13'0 0.0
2014-Dec-01 06:33N 37°31' W 122°13'0 0.0
2014-Dec-01 05:33N 37°31' W 122°13'0 0.0
2014-Dec-01 04:33N 37°31' W 122°13'0 0.0
2014-Dec-01 03:33N 37°31' W 122°13'0 0.0
2014-Dec-01 02:33N 37°31' W 122°13'0 0.0
2014-Dec-01 01:33N 37°31' W 122°13'1 0.8
2014-Dec-01 00:33N 37°31' W 122°12'0 0.1
2014-Nov-30 23:32N 37°31' W 122°12'0 0.1
2014-Nov-30 22:33N 37°31' W 122°12'0 0.0
2014-Nov-30 21:33N 37°31' W 122°12'0 0.2
2014-Nov-30 20:33N 37°31' W 122°12'0 0.1
2014-Nov-30 19:33N 37°31' W 122°12'0 0.1
2014-Nov-30 18:33N 37°31' W 122°12'0 0.2
2014-Nov-30 17:31N 37°31' W 122°12'0 0.1
2014-Nov-30 16:33N 37°31' W 122°12'0 0.1
2014-Nov-30 15:33N 37°31' W 122°12'0 0.0
2014-Nov-30 14:33N 37°31' W 122°12'1 0.6
2014-Nov-30 13:33N 37°31' W 122°13'0 0.0
2014-Nov-30 12:33N 37°31' W 122°13'0 0.0
2014-Nov-30 11:33N 37°31' W 122°13'0 0.0
2014-Nov-30 10:23N 37°31' W 122°13'0 0.0
2014-Nov-30 09:31N 37°31' W 122°13'0 0.0
2014-Nov-30 07:18N 37°31' W 122°13'0 0.0
2014-Nov-30 05:17N 37°31' W 122°13'0 0.0
2014-Nov-30 04:30N 37°31' W 122°13'0 0.0
2014-Nov-30 03:29N 37°31' W 122°13'0 0.1
2014-Nov-30 02:32N 37°31' W 122°13'0 0.3
2014-Nov-30 01:32N 37°31' W 122°13'0 0.2
2014-Nov-30 00:32N 37°31' W 122°13'0 0.1
2014-Nov-29 23:32N 37°31' W 122°13'  
Track history (hours):
 
Tides and Currents Weather Stations Pressure Air Temp Water Temp Dewpoint Dewpoint Depression Visibility Wind Speed Wind Dir Waves Ship Positions

Silia

Owner: greger pacific marine, napa, CA. More information available from US FCC via Universal Licensing System and Coast Guard Vessel Documentation Center.

Last reported at 2014-Dec-09 22:33 UTC. Time now 2014-Dec-20 08:04 UTC.
Position N 38°03' W 122°19'.
Warning: this ship's position is 10 days out of date.

Length 17 m; draft 3 m.

Type: Tug. MMSI: 367511460.

Date/timePositionNaut miles runAvg speedWind from/ knotsBaromVisibWave heightAir tempDewpointWater temp
2014-Dec-09 22:33N 38°03' W 122°19'9 8.5
2014-Dec-09 21:33N 37°56' W 122°26'9 9.1
2014-Dec-09 20:33N 37°47' W 122°22'8 8.0
2014-Dec-09 19:33N 37°39' W 122°19'8 7.6
2014-Dec-09 18:33N 37°34' W 122°13'  
2014-Dec-04 01:32N 37°30' W 122°13'0 0.4
2014-Dec-04 00:32N 37°31' W 122°13'0 0.0
2014-Dec-03 23:32N 37°31' W 122°13'0 0.2
2014-Dec-03 22:32N 37°31' W 122°13'0 0.1
2014-Dec-03 21:33N 37°31' W 122°13'0 0.1
2014-Dec-03 20:32N 37°31' W 122°13'0 0.1
2014-Dec-03 19:33N 37°31' W 122°13'0 0.0
2014-Dec-03 18:33N 37°31' W 122°13'0 0.0
2014-Dec-03 17:32N 37°31' W 122°13'1 0.6
2014-Dec-03 16:33N 37°30' W 122°13'1 0.6
2014-Dec-03 15:33N 37°31' W 122°13'0 0.1
2014-Dec-03 10:11N 37°31' W 122°13'0 0.0
2014-Dec-03 09:33N 37°31' W 122°13'0 0.0
2014-Dec-03 08:28N 37°31' W 122°13'0 0.0
2014-Dec-03 07:33N 37°31' W 122°13'0 0.0
2014-Dec-03 06:33N 37°31' W 122°13'0 0.0
2014-Dec-03 05:33N 37°31' W 122°13'0 0.0
2014-Dec-03 04:33N 37°31' W 122°13'0 0.0
2014-Dec-03 03:33N 37°31' W 122°13'0 0.0
2014-Dec-03 02:33N 37°31' W 122°13'0 0.2
2014-Dec-03 01:32N 37°31' W 122°13'0 0.0
2014-Dec-03 00:32N 37°31' W 122°13'0 0.1
2014-Dec-02 23:33N 37°31' W 122°13'0 0.0
2014-Dec-02 22:33N 37°31' W 122°13'0 0.0
2014-Dec-02 21:32N 37°31' W 122°13'0 0.1
2014-Dec-02 20:33N 37°31' W 122°13'0 0.1
2014-Dec-02 19:33N 37°31' W 122°13'0 0.1
2014-Dec-02 18:33N 37°31' W 122°13'0 0.3
2014-Dec-02 17:33N 37°31' W 122°13'0 0.1
2014-Dec-02 16:31N 37°31' W 122°13'0 0.0
2014-Dec-02 15:17N 37°31' W 122°13'0 0.1
2014-Dec-02 14:33N 37°31' W 122°13'0 0.1
2014-Dec-02 13:32N 37°31' W 122°13'0 0.0
2014-Dec-02 12:30N 37°31' W 122°13'0 0.0
2014-Dec-02 10:25N 37°31' W 122°13'0 0.0
2014-Dec-02 09:33N 37°31' W 122°13'0 0.0
2014-Dec-02 08:33N 37°31' W 122°13'0 0.0
2014-Dec-02 07:31N 37°31' W 122°13'0 0.0
2014-Dec-02 06:32N 37°31' W 122°13'0 0.0
2014-Dec-02 05:33N 37°31' W 122°13'0 0.0
2014-Dec-02 04:28N 37°31' W 122°13'0 0.0
2014-Dec-02 03:22N 37°31' W 122°13'0 0.0
2014-Dec-02 02:29N 37°31' W 122°13'0 0.2
2014-Dec-02 01:33N 37°31' W 122°13'1 0.6
2014-Dec-02 00:33N 37°31' W 122°12'0 0.1
2014-Dec-01 23:33N 37°31' W 122°12'0 0.3
2014-Dec-01 22:33N 37°31' W 122°12'0 0.0
2014-Dec-01 21:21N 37°31' W 122°12'0 0.1
2014-Dec-01 20:28N 37°31' W 122°12'0 0.3
2014-Dec-01 19:33N 37°31' W 122°12'0 0.1
2014-Dec-01 18:32N 37°31' W 122°12'0 0.1
2014-Dec-01 17:32N 37°31' W 122°12'0 0.2
2014-Dec-01 16:32N 37°31' W 122°12'0 0.4
2014-Dec-01 15:34N 37°31' W 122°12'1 0.6
2014-Dec-01 14:33N 37°31' W 122°13'0 0.4
2014-Dec-01 13:33N 37°31' W 122°13'0 0.0
2014-Dec-01 12:33N 37°31' W 122°13'0 0.0
2014-Dec-01 11:33N 37°31' W 122°13'0 0.0
2014-Dec-01 10:33N 37°31' W 122°13'0 0.0
2014-Dec-01 09:33N 37°31' W 122°13'0 0.0
2014-Dec-01 08:33N 37°31' W 122°13'0 0.0
2014-Dec-01 07:33N 37°31' W 122°13'0 0.0
2014-Dec-01 06:33N 37°31' W 122°13'0 0.0
2014-Dec-01 05:33N 37°31' W 122°13'0 0.0
2014-Dec-01 04:33N 37°31' W 122°13'0 0.0
2014-Dec-01 03:33N 37°31' W 122°13'0 0.0
2014-Dec-01 02:33N 37°31' W 122°13'0 0.0
2014-Dec-01 01:33N 37°31' W 122°13'1 0.8
2014-Dec-01 00:33N 37°31' W 122°12'0 0.1
2014-Nov-30 23:32N 37°31' W 122°12'0 0.1
2014-Nov-30 22:33N 37°31' W 122°12'0 0.0
2014-Nov-30 21:33N 37°31' W 122°12'0 0.2
2014-Nov-30 20:33N 37°31' W 122°12'0 0.1
2014-Nov-30 19:33N 37°31' W 122°12'0 0.1
2014-Nov-30 18:33N 37°31' W 122°12'0 0.2
2014-Nov-30 17:31N 37°31' W 122°12'0 0.1
2014-Nov-30 16:33N 37°31' W 122°12'0 0.1
2014-Nov-30 15:33N 37°31' W 122°12'0 0.0
2014-Nov-30 14:33N 37°31' W 122°12'1 0.6
2014-Nov-30 13:33N 37°31' W 122°13'0 0.0
2014-Nov-30 12:33N 37°31' W 122°13'0 0.0
2014-Nov-30 11:33N 37°31' W 122°13'0 0.0
2014-Nov-30 10:23N 37°31' W 122°13'0 0.0
2014-Nov-30 09:31N 37°31' W 122°13'0 0.0
2014-Nov-30 07:18N 37°31' W 122°13'0 0.0
2014-Nov-30 05:17N 37°31' W 122°13'0 0.0
2014-Nov-30 04:30N 37°31' W 122°13'0 0.0
2014-Nov-30 03:29N 37°31' W 122°13'0 0.1
2014-Nov-30 02:32N 37°31' W 122°13'0 0.3
2014-Nov-30 01:32N 37°31' W 122°13'0 0.2
2014-Nov-30 00:32N 37°31' W 122°13'0 0.1
2014-Nov-29 23:32N 37°31' W 122°13'  

Dump ship's entire track history